Time;durP1;ratioP1;P1;durP2;ratioP2;P2;SDS_P1;SDS_P2;PMS_P1;PMS_P2;Temp;Humidity;BMP_temperature;BMP_pressure;BME280_temperature;BME280_humidity;BME280_pressure;Samples;Min_cycle;Max_cycle;Signal;HPM_P1;HPM_P2
2024/01/28 00:02:27;;;;;;;45.30;11.30;;;;;;;-128.00;-1.00;-1.00;133566;1276;1003979;-80
2024/01/28 00:05:29;;;;;;;41.60;11.30;;;;;;;-128.00;-1.00;-1.00;133579;1276;1004197;-80
2024/01/28 00:08:32;;;;;;;30.50;11.10;;;;;;;-128.00;-1.00;-1.00;133573;1276;1004602;-80
2024/01/28 00:11:34;;;;;;;36.60;11.40;;;;;;;-128.00;-1.00;-1.00;133596;1275;1004466;-80
2024/01/28 00:14:37;;;;;;;34.60;10.30;;;;;;;-128.00;-1.00;-1.00;133626;1275;1004917;-80
2024/01/28 00:17:39;;;;;;;39.30;10.60;;;;;;;-128.00;-1.00;-1.00;133580;1276;1004069;-79
2024/01/28 00:20:42;;;;;;;37.20;12.20;;;;;;;-128.00;-1.00;-1.00;133626;1276;1004561;-79
2024/01/28 00:23:44;;;;;;;37.40;11.70;;;;;;;-128.00;-1.00;-1.00;133591;1276;1003409;-80
2024/01/28 00:26:47;;;;;;;39.00;12.00;;;;;;;-128.00;-1.00;-1.00;133620;1276;1004311;-80
2024/01/28 00:29:52;;;;;;;28.10;9.90;;;;;;;-128.00;-1.00;-1.00;133581;1276;1003423;-80
2024/01/28 00:32:54;;;;;;;27.80;9.30;;;;;;;-128.00;-1.00;-1.00;133568;1276;1004347;-80
2024/01/28 00:35:57;;;;;;;32.30;9.70;;;;;;;-128.00;-1.00;-1.00;133578;1276;1004556;-80
2024/01/28 00:38:59;;;;;;;31.80;9.60;;;;;;;-128.00;-1.00;-1.00;133545;1276;1003716;-80
2024/01/28 00:42:02;;;;;;;30.30;9.00;;;;;;;-128.00;-1.00;-1.00;133577;1276;1004134;-80
2024/01/28 00:45:04;;;;;;;36.40;10.80;;;;;;;-128.00;-1.00;-1.00;133563;1276;1004147;-79
2024/01/28 00:48:06;;;;;;;35.30;10.60;;;;;;;-128.00;-1.00;-1.00;133574;1276;1003985;-80
2024/01/28 00:51:09;;;;;;;31.30;9.80;;;;;;;-128.00;-1.00;-1.00;133572;1276;1003843;-80
2024/01/28 00:54:11;;;;;;;31.50;10.60;;;;;;;-128.00;-1.00;-1.00;133625;1276;1003933;-80
2024/01/28 00:57:14;;;;;;;27.30;10.10;;;;;;;-128.00;-1.00;-1.00;133573;1276;1003477;-79
2024/01/28 01:00:16;;;;;;;35.00;11.70;;;;;;;-128.00;-1.00;-1.00;133605;1276;1003663;-80
2024/01/28 01:03:18;;;;;;;32.30;11.20;;;;;;;-128.00;-1.00;-1.00;133600;1276;1003528;-80
2024/01/28 01:06:21;;;;;;;35.80;12.00;;;;;;;-128.00;-1.00;-1.00;133566;1276;1004970;-80
2024/01/28 01:09:24;;;;;;;36.20;11.80;;;;;;;-128.00;-1.00;-1.00;133563;1276;1004758;-80
2024/01/28 01:12:27;;;;;;;39.50;12.60;;;;;;;-128.00;-1.00;-1.00;133575;1276;1004357;-80
2024/01/28 01:15:29;;;;;;;42.50;13.00;;;;;;;-128.00;-1.00;-1.00;133578;1276;1004892;-80
2024/01/28 01:18:32;;;;;;;40.70;13.00;;;;;;;-128.00;-1.00;-1.00;133579;1276;1004582;-80
2024/01/28 01:21:34;;;;;;;30.40;11.70;;;;;;;-128.00;-1.00;-1.00;133558;1276;1005085;-80
2024/01/28 01:24:36;;;;;;;34.70;11.50;;;;;;;-128.00;-1.00;-1.00;133629;1276;1004817;-80
2024/01/28 01:27:40;;;;;;;37.70;12.70;;;;;;;-128.00;-1.00;-1.00;133630;1276;1003964;-80
2024/01/28 01:30:43;;;;;;;34.00;12.40;;;;;;;-128.00;-1.00;-1.00;133671;1276;1004483;-80
2024/01/28 01:33:45;;;;;;;35.80;12.10;;;;;;;-128.00;-1.00;-1.00;133614;1276;1004767;-78
2024/01/28 01:36:48;;;;;;;46.60;14.20;;;;;;;-128.00;-1.00;-1.00;133565;1275;1003618;-80
2024/01/28 01:39:50;;;;;;;31.40;12.60;;;;;;;-128.00;-1.00;-1.00;133534;1276;1004532;-79
2024/01/28 01:42:53;;;;;;;35.20;12.30;;;;;;;-128.00;-1.00;-1.00;133533;1276;1004440;-80
2024/01/28 01:45:55;;;;;;;36.60;13.10;;;;;;;-128.00;-1.00;-1.00;133516;1276;1005359;-79
2024/01/28 01:48:57;;;;;;;39.80;13.20;;;;;;;-128.00;-1.00;-1.00;133556;1276;1003502;-79
2024/01/28 01:52:00;;;;;;;33.30;13.50;;;;;;;-128.00;-1.00;-1.00;133579;1276;1004847;-78
2024/01/28 01:55:02;;;;;;;45.00;15.00;;;;;;;-128.00;-1.00;-1.00;133564;1276;1005212;-78
2024/01/28 01:58:05;;;;;;;38.50;14.30;;;;;;;-128.00;-1.00;-1.00;133534;1276;1003562;-78
2024/01/28 02:01:08;;;;;;;40.80;13.50;;;;;;;-128.00;-1.00;-1.00;133567;1276;1004804;-78
2024/01/28 02:04:10;;;;;;;27.50;11.30;;;;;;;-128.00;-1.00;-1.00;133599;1276;1004641;-78
2024/01/28 02:07:12;;;;;;;32.80;12.30;;;;;;;-128.00;-1.00;-1.00;133569;1276;1003490;-79
2024/01/28 02:10:15;;;;;;;31.40;12.40;;;;;;;-128.00;-1.00;-1.00;133585;1276;1004063;-79
2024/01/28 02:13:17;;;;;;;33.40;12.60;;;;;;;-128.00;-1.00;-1.00;133586;1276;1005021;-79
2024/01/28 02:16:20;;;;;;;28.50;10.70;;;;;;;-128.00;-1.00;-1.00;133584;1276;1003940;-80
2024/01/28 02:19:22;;;;;;;35.00;11.20;;;;;;;-128.00;-1.00;-1.00;133581;1276;1004631;-79
2024/01/28 02:22:25;;;;;;;28.70;10.80;;;;;;;-128.00;-1.00;-1.00;133579;1276;1004752;-80
2024/01/28 02:25:27;;;;;;;31.70;10.90;;;;;;;-128.00;-1.00;-1.00;133564;1276;1004982;-80
2024/01/28 02:28:30;;;;;;;27.10;10.90;;;;;;;-128.00;-1.00;-1.00;133581;1276;1004180;-80
2024/01/28 02:31:32;;;;;;;31.30;11.50;;;;;;;-128.00;-1.00;-1.00;133595;1276;1003279;-80
2024/01/28 02:34:35;;;;;;;27.20;10.50;;;;;;;-128.00;-1.00;-1.00;133617;1276;1004088;-80
2024/01/28 02:37:37;;;;;;;24.40;9.80;;;;;;;-128.00;-1.00;-1.00;133573;1275;1003688;-80
2024/01/28 02:40:40;;;;;;;26.50;10.30;;;;;;;-128.00;-1.00;-1.00;133588;1276;1004883;-80
2024/01/28 02:43:42;;;;;;;33.20;10.50;;;;;;;-128.00;-1.00;-1.00;133564;1276;1004008;-80
2024/01/28 02:46:44;;;;;;;30.60;10.70;;;;;;;-128.00;-1.00;-1.00;133602;1276;1004176;-79
2024/01/28 02:49:47;;;;;;;32.80;11.80;;;;;;;-128.00;-1.00;-1.00;133542;1276;1004581;-80
2024/01/28 02:52:49;;;;;;;26.10;9.90;;;;;;;-128.00;-1.00;-1.00;133561;1276;1003920;-80
2024/01/28 02:55:56;;;;;;;30.80;10.20;;;;;;;-128.00;-1.00;-1.00;133587;1276;1004323;-80
2024/01/28 02:58:58;;;;;;;26.40;10.00;;;;;;;-128.00;-1.00;-1.00;133547;1276;1004527;-80
2024/01/28 03:02:01;;;;;;;28.20;10.30;;;;;;;-128.00;-1.00;-1.00;133567;1276;1004586;-80
2024/01/28 03:05:03;;;;;;;39.40;10.70;;;;;;;-128.00;-1.00;-1.00;133567;1276;1005191;-78
2024/01/28 03:08:06;;;;;;;27.70;10.40;;;;;;;-128.00;-1.00;-1.00;133537;1276;1004030;-77
2024/01/28 03:11:08;;;;;;;27.30;9.80;;;;;;;-128.00;-1.00;-1.00;133556;1276;1004274;-78
2024/01/28 03:14:11;;;;;;;25.70;9.90;;;;;;;-128.00;-1.00;-1.00;133528;1276;1003779;-77
2024/01/28 03:17:14;;;;;;;23.10;10.10;;;;;;;-128.00;-1.00;-1.00;133560;1276;1004166;-77
2024/01/28 03:20:16;;;;;;;22.90;9.00;;;;;;;-128.00;-1.00;-1.00;133543;1276;1003584;-77
2024/01/28 03:23:19;;;;;;;22.20;9.70;;;;;;;-128.00;-1.00;-1.00;133571;1276;1004026;-77
2024/01/28 03:26:21;;;;;;;25.70;9.70;;;;;;;-128.00;-1.00;-1.00;133534;1276;1003638;-77
2024/01/28 03:29:24;;;;;;;16.60;8.40;;;;;;;-128.00;-1.00;-1.00;133589;1276;1005134;-78
2024/01/28 03:32:26;;;;;;;19.70;8.80;;;;;;;-128.00;-1.00;-1.00;133533;1276;1004073;-78
2024/01/28 03:35:29;;;;;;;18.70;9.00;;;;;;;-128.00;-1.00;-1.00;133562;1276;1004052;-79
2024/01/28 03:38:31;;;;;;;22.30;8.90;;;;;;;-128.00;-1.00;-1.00;133567;1276;1004663;-79
2024/01/28 03:41:34;;;;;;;23.10;11.50;;;;;;;-128.00;-1.00;-1.00;133559;1276;1004314;-79
2024/01/28 03:44:36;;;;;;;25.00;12.40;;;;;;;-128.00;-1.00;-1.00;133547;1276;1003880;-80
2024/01/28 03:47:39;;;;;;;24.20;11.60;;;;;;;-128.00;-1.00;-1.00;133588;1276;1004675;-79
2024/01/28 03:50:41;;;;;;;28.20;11.00;;;;;;;-128.00;-1.00;-1.00;133508;1276;1003457;-80
2024/01/28 03:53:43;;;;;;;25.30;11.10;;;;;;;-128.00;-1.00;-1.00;133563;1276;1004775;-80
2024/01/28 03:56:46;;;;;;;25.30;10.70;;;;;;;-128.00;-1.00;-1.00;133619;1276;1004866;-81
2024/01/28 03:59:49;;;;;;;25.10;10.70;;;;;;;-128.00;-1.00;-1.00;133644;1276;1004708;-80
2024/01/28 04:02:52;;;;;;;28.40;10.20;;;;;;;-128.00;-1.00;-1.00;133638;1275;1004487;-80
2024/01/28 04:05:54;;;;;;;31.80;12.00;;;;;;;-128.00;-1.00;-1.00;133564;1276;1003742;-80
2024/01/28 04:08:56;;;;;;;26.10;10.60;;;;;;;-128.00;-1.00;-1.00;133535;1276;1003489;-80
2024/01/28 04:11:59;;;;;;;27.50;10.30;;;;;;;-128.00;-1.00;-1.00;133600;1276;1003959;-80
2024/01/28 04:15:04;;;;;;;25.50;9.00;;;;;;;-128.00;-1.00;-1.00;133585;1276;1003506;-80
2024/01/28 04:18:06;;;;;;;20.90;9.20;;;;;;;-128.00;-1.00;-1.00;133562;1276;1004219;-80
2024/01/28 04:21:09;;;;;;;25.50;10.70;;;;;;;-128.00;-1.00;-1.00;133547;1276;1004057;-80
2024/01/28 04:24:11;;;;;;;26.00;10.30;;;;;;;-128.00;-1.00;-1.00;133526;1276;1003697;-80
2024/01/28 04:27:14;;;;;;;21.50;9.20;;;;;;;-128.00;-1.00;-1.00;133528;1276;1004859;-79
2024/01/28 04:30:16;;;;;;;25.70;9.60;;;;;;;-128.00;-1.00;-1.00;133514;1276;1004605;-79
2024/01/28 04:33:19;;;;;;;26.00;9.40;;;;;;;-128.00;-1.00;-1.00;133540;1276;1004057;-80
2024/01/28 04:36:21;;;;;;;23.00;8.80;;;;;;;-128.00;-1.00;-1.00;133542;1276;1004816;-80
2024/01/28 04:39:24;;;;;;;23.90;9.10;;;;;;;-128.00;-1.00;-1.00;133543;1276;1004408;-80
2024/01/28 04:42:26;;;;;;;22.70;10.30;;;;;;;-128.00;-1.00;-1.00;133493;1276;1004837;-80
2024/01/28 04:45:29;;;;;;;25.20;9.60;;;;;;;-128.00;-1.00;-1.00;133522;1276;1003683;-79
2024/01/28 04:48:31;;;;;;;17.20;8.40;;;;;;;-128.00;-1.00;-1.00;133550;1276;1003604;-79
2024/01/28 04:51:34;;;;;;;25.60;9.10;;;;;;;-128.00;-1.00;-1.00;133543;1276;1004057;-79
2024/01/28 04:54:37;;;;;;;23.90;8.40;;;;;;;-128.00;-1.00;-1.00;133504;1276;1004994;-80
2024/01/28 04:57:43;;;;;;;20.30;8.60;;;;;;;-128.00;-1.00;-1.00;133528;1275;1003861;-80
2024/01/28 05:00:46;;;;;;;20.00;8.80;;;;;;;-128.00;-1.00;-1.00;133546;1276;1003759;-80
2024/01/28 05:03:48;;;;;;;21.40;9.00;;;;;;;-128.00;-1.00;-1.00;133542;1276;1004027;-79
2024/01/28 05:06:52;;;;;;;20.20;8.80;;;;;;;-128.00;-1.00;-1.00;133523;1276;1004127;-80
2024/01/28 05:09:54;;;;;;;14.30;7.60;;;;;;;-128.00;-1.00;-1.00;133533;1276;1004682;-80
2024/01/28 05:12:57;;;;;;;18.70;9.50;;;;;;;-128.00;-1.00;-1.00;133504;1276;1004961;-80
2024/01/28 05:15:59;;;;;;;16.70;7.90;;;;;;;-128.00;-1.00;-1.00;133547;1276;1003392;-80
2024/01/28 05:19:02;;;;;;;16.60;8.90;;;;;;;-128.00;-1.00;-1.00;133516;1276;1004314;-80
2024/01/28 05:22:05;;;;;;;17.80;8.20;;;;;;;-128.00;-1.00;-1.00;133477;1276;1004532;-79
2024/01/28 05:25:09;;;;;;;17.10;9.70;;;;;;;-128.00;-1.00;-1.00;133491;1276;1004517;-80
2024/01/28 05:28:11;;;;;;;20.60;12.80;;;;;;;-128.00;-1.00;-1.00;133503;1276;1004482;-80
2024/01/28 05:31:14;;;;;;;22.60;11.90;;;;;;;-128.00;-1.00;-1.00;133467;1276;1004890;-80
2024/01/28 05:34:16;;;;;;;29.60;14.60;;;;;;;-128.00;-1.00;-1.00;133484;1276;1004482;-80
2024/01/28 05:37:18;;;;;;;24.10;14.20;;;;;;;-128.00;-1.00;-1.00;133505;1276;1003886;-80
2024/01/28 05:40:21;;;;;;;25.30;13.80;;;;;;;-128.00;-1.00;-1.00;133555;1276;1004111;-80
2024/01/28 05:43:23;;;;;;;26.60;13.30;;;;;;;-128.00;-1.00;-1.00;133505;1276;1003481;-80
2024/01/28 05:46:26;;;;;;;23.40;13.80;;;;;;;-128.00;-1.00;-1.00;133554;1276;1004237;-79
2024/01/28 05:49:28;;;;;;;26.00;13.30;;;;;;;-128.00;-1.00;-1.00;133509;1276;1004301;-81
2024/01/28 05:52:31;;;;;;;26.20;13.60;;;;;;;-128.00;-1.00;-1.00;133532;1276;1004428;-80
2024/01/28 05:55:33;;;;;;;26.10;14.20;;;;;;;-128.00;-1.00;-1.00;133498;1276;1004343;-80
2024/01/28 05:58:38;;;;;;;40.50;23.50;;;;;;;-128.00;-1.00;-1.00;133536;1276;1004578;-81
2024/01/28 06:01:40;;;;;;;;;;;;;;;-128.00;-1.00;-1.00;133540;1276;1004923;-81
2024/01/28 06:04:43;;;;;;;29.00;17.70;;;;;;;-128.00;-1.00;-1.00;133279;1276;1003948;-81
2024/01/28 06:07:45;;;;;;;36.20;18.50;;;;;;;-128.00;-1.00;-1.00;133497;1276;1004018;-80
2024/01/28 06:10:48;;;;;;;38.20;19.60;;;;;;;-128.00;-1.00;-1.00;133452;1276;1003918;-81
2024/01/28 06:13:50;;;;;;;58.90;26.40;;;;;;;-128.00;-1.00;-1.00;133503;1276;1003572;-81
2024/01/28 06:16:52;;;;;;;57.00;27.40;;;;;;;-128.00;-1.00;-1.00;133558;1276;1004184;-81
2024/01/28 06:19:55;;;;;;;68.30;31.10;;;;;;;-128.00;-1.00;-1.00;133575;1276;1004333;-82
2024/01/28 06:22:57;;;;;;;62.90;33.80;;;;;;;-128.00;-1.00;-1.00;133563;1276;1004535;-81
2024/01/28 06:26:00;;;;;;;59.10;34.90;;;;;;;-128.00;-1.00;-1.00;133546;1276;1004832;-81
2024/01/28 06:29:02;;;;;;;55.70;32.20;;;;;;;-128.00;-1.00;-1.00;133643;1276;1003889;-82
2024/01/28 06:32:05;;;;;;;55.20;29.40;;;;;;;-128.00;-1.00;-1.00;133632;1276;1003789;-81
2024/01/28 06:35:08;;;;;;;52.70;29.00;;;;;;;-128.00;-1.00;-1.00;133619;1276;1005240;-82
2024/01/28 06:38:11;;;;;;;62.10;32.30;;;;;;;-128.00;-1.00;-1.00;133598;1276;1004549;-82
2024/01/28 06:41:13;;;;;;;51.30;31.60;;;;;;;-128.00;-1.00;-1.00;133601;1276;1004297;-81
2024/01/28 06:44:15;;;;;;;54.10;29.90;;;;;;;-128.00;-1.00;-1.00;133592;1276;1003877;-81
2024/01/28 06:47:18;;;;;;;60.80;31.50;;;;;;;-128.00;-1.00;-1.00;133562;1276;1004200;-81
2024/01/28 06:50:20;;;;;;;52.60;28.40;;;;;;;-128.00;-1.00;-1.00;133567;1276;1003774;-81
2024/01/28 06:53:23;;;;;;;50.50;27.60;;;;;;;-128.00;-1.00;-1.00;133544;1276;1004442;-81
2024/01/28 06:56:25;;;;;;;45.10;24.70;;;;;;;-128.00;-1.00;-1.00;133537;1276;1003922;-81
2024/01/28 06:59:28;;;;;;;38.60;24.10;;;;;;;-128.00;-1.00;-1.00;133502;1276;1004207;-82
2024/01/28 07:02:30;;;;;;;43.70;24.20;;;;;;;-128.00;-1.00;-1.00;133560;1276;1004407;-80
2024/01/28 07:05:33;;;;;;;42.60;22.50;;;;;;;-128.00;-1.00;-1.00;133508;1276;1004638;-81
2024/01/28 07:08:35;;;;;;;35.90;19.60;;;;;;;-128.00;-1.00;-1.00;133570;1276;1004741;-82
2024/01/28 07:11:38;;;;;;;36.90;18.70;;;;;;;-128.00;-1.00;-1.00;133537;1276;1004780;-81
2024/01/28 07:14:40;;;;;;;26.70;15.80;;;;;;;-128.00;-1.00;-1.00;133490;1276;1004162;-80
2024/01/28 07:17:43;;;;;;;23.60;12.20;;;;;;;-128.00;-1.00;-1.00;133517;1276;1004167;-81
2024/01/28 07:20:45;;;;;;;18.80;10.70;;;;;;;-128.00;-1.00;-1.00;133521;1276;1005560;-81
2024/01/28 07:23:48;;;;;;;18.50;11.20;;;;;;;-128.00;-1.00;-1.00;133490;1276;1004709;-82
2024/01/28 07:26:50;;;;;;;14.80;9.40;;;;;;;-128.00;-1.00;-1.00;133529;1276;1004267;-82
2024/01/28 07:29:52;;;;;;;22.30;10.60;;;;;;;-128.00;-1.00;-1.00;133602;1276;1003929;-82
2024/01/28 07:32:55;;;;;;;14.10;8.00;;;;;;;-128.00;-1.00;-1.00;133552;1276;1004871;-82
2024/01/28 07:35:57;;;;;;;15.10;9.70;;;;;;;-128.00;-1.00;-1.00;133556;1276;1004064;-82
2024/01/28 07:39:00;;;;;;;16.80;8.80;;;;;;;-128.00;-1.00;-1.00;133563;1276;1003853;-82
2024/01/28 07:42:04;;;;;;;13.50;9.20;;;;;;;-128.00;-1.00;-1.00;133568;1276;1004334;-82
2024/01/28 07:45:06;;;;;;;15.30;10.30;;;;;;;-128.00;-1.00;-1.00;133554;1276;1004160;-82
2024/01/28 07:48:08;;;;;;;17.50;10.20;;;;;;;-128.00;-1.00;-1.00;133567;1276;1003413;-82
2024/01/28 07:51:11;;;;;;;21.20;11.20;;;;;;;-128.00;-1.00;-1.00;133570;1276;1004585;-82
2024/01/28 07:54:14;;;;;;;16.80;11.20;;;;;;;-128.00;-1.00;-1.00;133564;1276;1004481;-81
2024/01/28 07:57:16;;;;;;;15.70;8.80;;;;;;;-128.00;-1.00;-1.00;133520;1276;1003516;-82
2024/01/28 08:00:19;;;;;;;14.70;8.00;;;;;;;-128.00;-1.00;-1.00;133558;1276;1004631;-81
2024/01/28 08:03:21;;;;;;;17.20;8.40;;;;;;;-128.00;-1.00;-1.00;133566;1276;1004120;-82
2024/01/28 08:06:24;;;;;;;18.70;8.80;;;;;;;-128.00;-1.00;-1.00;133550;1276;1003883;-81
2024/01/28 08:09:27;;;;;;;16.10;8.30;;;;;;;-128.00;-1.00;-1.00;133562;1276;1003836;-82
2024/01/28 08:12:30;;;;;;;13.80;6.50;;;;;;;-128.00;-1.00;-1.00;133547;1276;1003612;-81
2024/01/28 08:15:32;;;;;;;15.10;10.90;;;;;;;-128.00;-1.00;-1.00;133544;1276;1004803;-83
2024/01/28 08:18:34;;;;;;;19.20;11.20;;;;;;;-128.00;-1.00;-1.00;133538;1276;1004152;-79
2024/01/28 08:21:37;;;;;;;16.10;10.60;;;;;;;-128.00;-1.00;-1.00;133553;1276;1004563;-80
2024/01/28 08:24:39;;;;;;;15.20;9.70;;;;;;;-128.00;-1.00;-1.00;133575;1276;1004497;-79
2024/01/28 08:27:42;;;;;;;14.70;10.00;;;;;;;-128.00;-1.00;-1.00;133527;1276;1004654;-80
2024/01/28 08:30:44;;;;;;;23.40;12.20;;;;;;;-128.00;-1.00;-1.00;133548;1276;1003556;-82
2024/01/28 08:33:47;;;;;;;23.80;11.80;;;;;;;-128.00;-1.00;-1.00;133565;1276;1004388;-82
2024/01/28 08:36:50;;;;;;;17.90;10.30;;;;;;;-128.00;-1.00;-1.00;133534;1276;1004091;-81
2024/01/28 08:39:52;;;;;;;21.90;12.00;;;;;;;-128.00;-1.00;-1.00;133550;1276;1004195;-85
2024/01/28 08:42:54;;;;;;;26.80;15.00;;;;;;;-128.00;-1.00;-1.00;133517;1276;1004418;-86
2024/01/28 08:45:57;;;;;;;21.00;12.70;;;;;;;-128.00;-1.00;-1.00;133540;1276;1003659;-85
2024/01/28 08:48:59;;;;;;;14.30;9.10;;;;;;;-128.00;-1.00;-1.00;133558;1276;1003805;-84
2024/01/28 08:52:02;;;;;;;11.40;8.60;;;;;;;-128.00;-1.00;-1.00;133537;1276;1003767;-85
2024/01/28 08:55:04;;;;;;;13.10;8.10;;;;;;;-128.00;-1.00;-1.00;133534;1276;1003768;-85
2024/01/28 08:58:07;;;;;;;17.90;9.50;;;;;;;-128.00;-1.00;-1.00;133627;1276;1004852;-85
2024/01/28 09:01:11;;;;;;;12.80;8.60;;;;;;;-128.00;-1.00;-1.00;133645;1276;1004223;-85
2024/01/28 09:04:14;;;;;;;13.00;8.80;;;;;;;-128.00;-1.00;-1.00;133648;1276;1003982;-85
2024/01/28 09:07:16;;;;;;;12.10;7.80;;;;;;;-128.00;-1.00;-1.00;133642;1276;1004818;-85
2024/01/28 09:10:19;;;;;;;17.00;10.50;;;;;;;-128.00;-1.00;-1.00;133599;1276;1003784;-83
2024/01/28 09:13:22;;;;;;;15.40;10.50;;;;;;;-128.00;-1.00;-1.00;133573;1276;1004796;-85
2024/01/28 09:16:26;;;;;;;17.50;9.80;;;;;;;-128.00;-1.00;-1.00;133599;1276;1004896;-84
2024/01/28 09:19:28;;;;;;;19.20;11.70;;;;;;;-128.00;-1.00;-1.00;133558;1276;1003919;-85
2024/01/28 09:22:33;;;;;;;20.10;10.20;;;;;;;-128.00;-1.00;-1.00;133519;1276;1004881;-84
2024/01/28 09:25:36;;;;;;;11.30;7.60;;;;;;;-128.00;-1.00;-1.00;133504;1276;1003638;-85
2024/01/28 09:28:38;;;;;;;11.20;6.60;;;;;;;-128.00;-1.00;-1.00;133499;1276;1004349;-85
2024/01/28 09:31:41;;;;;;;7.10;6.10;;;;;;;-128.00;-1.00;-1.00;133530;1276;1004431;-85
2024/01/28 09:34:45;;;;;;;9.20;5.50;;;;;;;-128.00;-1.00;-1.00;133503;1276;1004596;-85
2024/01/28 09:37:48;;;;;;;5.50;4.30;;;;;;;-128.00;-1.00;-1.00;133535;1276;1003722;-85
2024/01/28 09:40:50;;;;;;;7.50;4.80;;;;;;;-128.00;-1.00;-1.00;133541;1276;1004234;-87
2024/01/28 09:43:52;;;;;;;5.70;4.20;;;;;;;-128.00;-1.00;-1.00;133555;1276;1005268;-85
2024/01/28 09:46:55;;;;;;;6.60;4.30;;;;;;;-128.00;-1.00;-1.00;133594;1276;1004420;-86
2024/01/28 09:49:58;;;;;;;5.60;4.40;;;;;;;-128.00;-1.00;-1.00;133534;1276;1005031;-86
2024/01/28 09:53:00;;;;;;;7.70;4.80;;;;;;;-128.00;-1.00;-1.00;133547;1276;1004133;-86
2024/01/28 09:56:03;;;;;;;9.50;6.60;;;;;;;-128.00;-1.00;-1.00;133567;1276;1004885;-86
2024/01/28 09:59:05;;;;;;;9.70;7.10;;;;;;;-128.00;-1.00;-1.00;133535;1276;1003384;-86
2024/01/28 10:02:08;;;;;;;11.60;7.00;;;;;;;-128.00;-1.00;-1.00;133563;1276;1003982;-85
2024/01/28 10:05:11;;;;;;;9.00;7.10;;;;;;;-128.00;-1.00;-1.00;133564;1276;1003444;-85
2024/01/28 10:08:13;;;;;;;12.20;7.80;;;;;;;-128.00;-1.00;-1.00;133578;1276;1004201;-85
2024/01/28 10:11:16;;;;;;;9.10;7.00;;;;;;;-128.00;-1.00;-1.00;133540;1276;1004169;-84
2024/01/28 10:14:19;;;;;;;16.10;9.90;;;;;;;-128.00;-1.00;-1.00;133504;1276;1003930;-86
2024/01/28 10:17:21;;;;;;;13.60;9.90;;;;;;;-128.00;-1.00;-1.00;133543;1276;1003257;-85
2024/01/28 10:20:24;;;;;;;14.80;9.80;;;;;;;-128.00;-1.00;-1.00;133539;1276;1003885;-85
2024/01/28 10:23:26;;;;;;;15.70;10.70;;;;;;;-128.00;-1.00;-1.00;133535;1276;1004823;-85
2024/01/28 10:26:29;;;;;;;15.60;9.40;;;;;;;-128.00;-1.00;-1.00;133571;1276;1005057;-85
2024/01/28 10:29:31;;;;;;;9.10;7.40;;;;;;;-128.00;-1.00;-1.00;133562;1276;1004668;-86
2024/01/28 10:32:34;;;;;;;8.80;6.90;;;;;;;-128.00;-1.00;-1.00;133562;1276;1004298;-85
2024/01/28 10:35:37;;;;;;;10.80;8.00;;;;;;;-128.00;-1.00;-1.00;133555;1276;1004593;-86
2024/01/28 10:38:39;;;;;;;13.80;9.20;;;;;;;-128.00;-1.00;-1.00;133593;1276;1004344;-85
2024/01/28 10:41:42;;;;;;;12.00;7.80;;;;;;;-128.00;-1.00;-1.00;133529;1276;1004147;-86
2024/01/28 10:44:44;;;;;;;13.60;7.80;;;;;;;-128.00;-1.00;-1.00;133567;1276;1004225;-85
2024/01/28 10:47:47;;;;;;;12.50;8.10;;;;;;;-128.00;-1.00;-1.00;133568;1276;1003526;-86
2024/01/28 10:50:49;;;;;;;10.10;7.00;;;;;;;-128.00;-1.00;-1.00;133556;1276;1004829;-85
2024/01/28 10:53:52;;;;;;;6.60;5.30;;;;;;;-128.00;-1.00;-1.00;133534;1276;1005110;-85
2024/01/28 10:56:54;;;;;;;9.90;6.20;;;;;;;-128.00;-1.00;-1.00;133566;1276;1004445;-84
2024/01/28 10:59:58;;;;;;;14.00;7.90;;;;;;;-128.00;-1.00;-1.00;133533;1276;1005441;-86
2024/01/28 11:03:01;;;;;;;8.00;6.40;;;;;;;-128.00;-1.00;-1.00;133568;1276;1003182;-86
2024/01/28 11:06:05;;;;;;;12.00;7.60;;;;;;;-128.00;-1.00;-1.00;133531;1276;1003865;-84
2024/01/28 11:09:07;;;;;;;12.40;8.70;;;;;;;-128.00;-1.00;-1.00;133566;1276;1003785;-85
2024/01/28 11:12:10;;;;;;;12.70;8.40;;;;;;;-128.00;-1.00;-1.00;133517;1276;1004535;-87
2024/01/28 11:15:15;;;;;;;11.80;8.60;;;;;;;-128.00;-1.00;-1.00;133516;1276;1004016;-85
2024/01/28 11:18:17;;;;;;;12.20;6.60;;;;;;;-128.00;-1.00;-1.00;133536;1276;1003428;-85
2024/01/28 11:21:20;;;;;;;13.40;9.30;;;;;;;-128.00;-1.00;-1.00;133516;1276;1004043;-86
2024/01/28 11:24:23;;;;;;;16.10;11.30;;;;;;;-128.00;-1.00;-1.00;133547;1276;1004526;-86
2024/01/28 11:27:25;;;;;;;29.30;17.30;;;;;;;-128.00;-1.00;-1.00;133537;1276;1004481;-86
2024/01/28 11:30:28;;;;;;;21.80;13.90;;;;;;;-128.00;-1.00;-1.00;133529;1276;1004130;-85
2024/01/28 11:33:30;;;;;;;19.30;12.30;;;;;;;-128.00;-1.00;-1.00;133527;1276;1003960;-84
2024/01/28 11:36:33;;;;;;;20.90;11.60;;;;;;;-128.00;-1.00;-1.00;133551;1276;1003809;-85
2024/01/28 11:39:35;;;;;;;12.00;9.30;;;;;;;-128.00;-1.00;-1.00;133588;1276;1004292;-86
2024/01/28 11:42:38;;;;;;;18.30;9.50;;;;;;;-128.00;-1.00;-1.00;133608;1276;1003642;-85
2024/01/28 11:45:41;;;;;;;23.40;15.90;;;;;;;-128.00;-1.00;-1.00;133671;1275;1004486;-87
2024/01/28 11:48:43;;;;;;;23.00;13.70;;;;;;;-128.00;-1.00;-1.00;133633;1276;1004260;-86
2024/01/28 11:51:46;;;;;;;25.60;14.20;;;;;;;-128.00;-1.00;-1.00;133542;1276;1004236;-86
2024/01/28 11:54:48;;;;;;;20.40;13.30;;;;;;;-128.00;-1.00;-1.00;133591;1275;1004486;-86
2024/01/28 11:57:51;;;;;;;20.70;11.90;;;;;;;-128.00;-1.00;-1.00;133616;1276;1004042;-87
2024/01/28 12:00:54;;;;;;;24.30;14.50;;;;;;;-128.00;-1.00;-1.00;133575;1276;1004510;-88
2024/01/28 12:03:56;;;;;;;17.90;12.40;;;;;;;-128.00;-1.00;-1.00;133595;1276;1004648;-86
2024/01/28 12:06:59;;;;;;;18.40;11.00;;;;;;;-128.00;-1.00;-1.00;133570;1276;1004671;-87
2024/01/28 12:10:05;;;;;;;18.10;11.90;;;;;;;-128.00;-1.00;-1.00;133602;1276;1004361;-87
2024/01/28 12:13:12;;;;;;;15.10;10.50;;;;;;;-128.00;-1.00;-1.00;133571;1276;1004374;-86
2024/01/28 12:16:14;;;;;;;16.10;11.00;;;;;;;-128.00;-1.00;-1.00;133570;1276;1003653;-86
2024/01/28 12:19:17;;;;;;;18.80;11.90;;;;;;;-128.00;-1.00;-1.00;133544;1276;1004821;-85
2024/01/28 12:22:20;;;;;;;13.50;8.70;;;;;;;-128.00;-1.00;-1.00;133606;1276;1004698;-85
2024/01/28 12:25:24;;;;;;;29.60;18.40;;;;;;;-128.00;-1.00;-1.00;133583;1276;1003969;-85
2024/01/28 12:28:27;;;;;;;64.90;37.20;;;;;;;-128.00;-1.00;-1.00;133547;1276;1004520;-85
2024/01/28 12:31:30;;;;;;;26.60;16.40;;;;;;;-128.00;-1.00;-1.00;133547;1276;1004120;-85
2024/01/28 12:34:37;;;;;;;20.20;13.10;;;;;;;-128.00;-1.00;-1.00;133590;1276;1004783;-86
2024/01/28 12:37:39;;;;;;;14.20;10.00;;;;;;;-128.00;-1.00;-1.00;133610;1276;1004200;-86
2024/01/28 12:40:42;;;;;;;12.20;9.10;;;;;;;-128.00;-1.00;-1.00;133592;1276;1004548;-86
2024/01/28 12:43:48;;;;;;;12.10;7.50;;;;;;;-128.00;-1.00;-1.00;133540;1276;1004023;-86
2024/01/28 12:46:52;;;;;;;9.50;6.30;;;;;;;-128.00;-1.00;-1.00;133596;1276;1004721;-85
2024/01/28 12:49:54;;;;;;;9.00;6.00;;;;;;;-128.00;-1.00;-1.00;133585;1276;1004576;-86
2024/01/28 12:52:57;;;;;;;6.90;4.80;;;;;;;-128.00;-1.00;-1.00;133582;1276;1003757;-86
2024/01/28 12:56:07;;;;;;;6.30;4.90;;;;;;;-128.00;-1.00;-1.00;133607;1276;1003884;-85
2024/01/28 12:59:10;;;;;;;10.00;5.70;;;;;;;-128.00;-1.00;-1.00;133558;1276;1005202;-85
2024/01/28 13:02:13;;;;;;;10.90;7.00;;;;;;;-128.00;-1.00;-1.00;133546;1276;1003969;-85
2024/01/28 13:05:16;;;;;;;14.20;9.30;;;;;;;-128.00;-1.00;-1.00;133579;1276;1004384;-86
2024/01/28 13:08:19;;;;;;;11.10;8.30;;;;;;;-128.00;-1.00;-1.00;133545;1276;1003592;-85
2024/01/28 13:11:22;;;;;;;10.40;7.50;;;;;;;-128.00;-1.00;-1.00;133586;1276;1004068;-86
2024/01/28 13:14:26;;;;;;;10.20;6.30;;;;;;;-128.00;-1.00;-1.00;133598;1276;1004547;-86
2024/01/28 13:17:32;;;;;;;13.00;8.50;;;;;;;-128.00;-1.00;-1.00;133603;1276;1004629;-86
2024/01/28 13:20:34;;;;;;;7.90;6.30;;;;;;;-128.00;-1.00;-1.00;133597;1276;1003666;-86
2024/01/28 13:23:37;;;;;;;10.80;6.00;;;;;;;-128.00;-1.00;-1.00;133633;1276;1004409;-85
2024/01/28 13:26:46;;;;;;;8.40;5.60;;;;;;;-128.00;-1.00;-1.00;133595;1276;1004310;-85
2024/01/28 13:29:48;;;;;;;10.20;6.10;;;;;;;-128.00;-1.00;-1.00;133606;1276;1004075;-84
2024/01/28 13:32:51;;;;;;;7.80;5.60;;;;;;;-128.00;-1.00;-1.00;133604;1276;1004975;-85
2024/01/28 13:35:56;;;;;;;7.00;5.10;;;;;;;-128.00;-1.00;-1.00;133620;1276;1004124;-86
2024/01/28 13:39:00;;;;;;;10.10;5.80;;;;;;;-128.00;-1.00;-1.00;133597;1276;1004337;-85
2024/01/28 13:42:03;;;;;;;8.10;6.70;;;;;;;-128.00;-1.00;-1.00;133600;1276;1004251;-84
2024/01/28 13:45:06;;;;;;;12.40;8.30;;;;;;;-128.00;-1.00;-1.00;133584;1276;1004267;-85
2024/01/28 13:48:09;;;;;;;10.90;7.30;;;;;;;-128.00;-1.00;-1.00;133603;1276;1004442;-85